Time;durP1;ratioP1;P1;durP2;ratioP2;P2;SDS_P1;SDS_P2;PMS_P1;PMS_P2;Temp;Humidity;BMP_temperature;BMP_pressure;BME280_temperature;BME280_humidity;BME280_pressure;Samples;Min_cycle;Max_cycle;Signal;HPM_P1;HPM_P2
2023/06/07 00:01:33;;;;;;;8.40;5.40;;;16.90;99.90;;;;;;5048859;28;20799;-76
2023/06/07 00:03:59;;;;;;;17.23;6.05;;;16.80;99.90;;;;;;5048876;28;20124;-76
2023/06/07 00:06:25;;;;;;;8.45;5.50;;;16.80;99.90;;;;;;5048858;28;20029;-75
2023/06/07 00:08:50;;;;;;;10.75;6.03;;;16.80;99.90;;;;;;5048825;28;20520;-74
2023/06/07 00:11:16;;;;;;;13.40;5.53;;;16.70;99.90;;;;;;5048444;28;20025;-76
2023/06/07 00:13:42;;;;;;;13.43;7.05;;;16.70;99.90;;;;;;5048840;28;20029;-75
2023/06/07 00:16:08;;;;;;;17.38;5.38;;;16.70;99.90;;;;;;5047496;28;20115;-75
2023/06/07 00:18:33;;;;;;;15.02;5.70;;;16.70;99.90;;;;;;5048753;28;20438;-75
2023/06/07 00:21:00;;;;;;;7.50;4.88;;;16.60;99.90;;;;;;5048708;28;20390;-75
2023/06/07 00:23:28;;;;;;;16.15;5.72;;;16.60;99.90;;;;;;5048479;28;20084;-75
2023/06/07 00:25:54;;;;;;;13.38;5.57;;;16.60;99.90;;;;;;5048702;28;20036;-75
2023/06/07 00:28:20;;;;;;;11.73;5.63;;;16.60;99.90;;;;;;5048641;28;20079;-74
2023/06/07 00:30:45;;;;;;;8.48;5.07;;;16.60;99.90;;;;;;5052085;28;20021;-75
2023/06/07 00:33:11;;;;;;;12.55;4.68;;;16.60;99.90;;;;;;5052129;28;20462;-74
2023/06/07 00:35:37;;;;;;;10.65;5.75;;;16.50;99.90;;;;;;5051800;28;20025;-74
2023/06/07 00:38:05;;;;;;;8.45;5.57;;;16.50;99.90;;;;;;5052671;28;20033;-75
2023/06/07 00:40:31;;;;;;;14.70;6.00;;;16.50;99.90;;;;;;5052038;28;20117;-75
2023/06/07 00:42:56;;;;;;;19.77;6.45;;;16.50;99.90;;;;;;5050905;28;20499;-74
2023/06/07 00:45:22;;;;;;;11.50;5.43;;;16.50;99.90;;;;;;5050238;28;20025;-74
2023/06/07 00:47:48;;;;;;;6.40;4.93;;;16.50;99.90;;;;;;5050718;28;20785;-75
2023/06/07 00:50:14;;;;;;;11.63;5.60;;;16.50;99.90;;;;;;5052145;28;20482;-75
2023/06/07 00:52:40;;;;;;;8.55;5.60;;;16.50;99.90;;;;;;5050697;28;20499;-74
2023/06/07 00:55:08;;;;;;;10.13;6.18;;;16.40;99.90;;;;;;5051741;28;20033;-74
2023/06/07 00:57:35;;;;;;;10.75;6.03;;;16.50;99.90;;;;;;5050449;28;20417;-75
2023/06/07 01:00:02;;;;;;;9.50;5.95;;;16.40;99.90;;;;;;5051567;28;20043;-75
2023/06/07 01:02:29;;;;;;;16.58;6.05;;;16.40;99.90;;;;;;5051790;28;20025;-74
2023/06/07 01:04:57;;;;;;;7.75;5.35;;;16.30;99.90;;;;;;5051730;28;20029;-75
2023/06/07 01:07:24;;;;;;;18.85;5.88;;;16.30;99.90;;;;;;5050284;28;20474;-75
2023/06/07 01:09:52;;;;;;;12.70;6.97;;;16.30;99.90;;;;;;5049980;28;20052;-75
2023/06/07 01:12:19;;;;;;;16.25;6.18;;;16.30;99.90;;;;;;5051471;28;20393;-76
2023/06/07 01:14:47;;;;;;;13.93;5.90;;;16.30;99.90;;;;;;5051594;28;20029;-76
2023/06/07 01:17:14;;;;;;;15.82;5.68;;;16.30;99.90;;;;;;5051395;28;20815;-76
2023/06/07 01:19:42;;;;;;;9.25;6.22;;;16.30;99.90;;;;;;5051231;28;20041;-76
2023/06/07 01:22:10;;;;;;;16.05;7.07;;;16.30;99.90;;;;;;5050179;28;20057;-76
2023/06/07 01:24:37;;;;;;;9.02;5.90;;;16.30;99.90;;;;;;5051421;28;20032;-75
2023/06/07 01:27:07;;;;;;;8.05;5.30;;;16.30;99.90;;;;;;5051381;28;20063;-76
2023/06/07 01:29:33;;;;;;;16.33;6.80;;;16.30;99.90;;;;;;5050922;28;20021;-75
2023/06/07 01:32:02;;;;;;;14.93;6.07;;;16.30;99.90;;;;;;5049745;28;20029;-75
2023/06/07 01:34:29;;;;;;;15.23;6.30;;;16.20;99.90;;;;;;5051325;28;20036;-75
2023/06/07 01:36:56;;;;;;;13.55;5.50;;;16.30;99.90;;;;;;5051094;28;20025;-75
2023/06/07 01:39:25;;;;;;;11.77;6.22;;;16.20;99.90;;;;;;5050677;28;20405;-74
2023/06/07 01:41:52;;;;;;;17.63;6.10;;;16.20;99.90;;;;;;5050131;28;20375;-74
2023/06/07 01:44:19;;;;;;;12.73;6.68;;;16.20;99.90;;;;;;5050867;28;20045;-75
2023/06/07 01:46:46;;;;;;;14.00;7.07;;;16.20;99.90;;;;;;5050876;28;20071;-74
2023/06/07 01:49:13;;;;;;;14.05;6.13;;;16.20;99.90;;;;;;5050633;28;20057;-75
2023/06/07 01:51:38;;;;;;;15.15;5.78;;;16.20;99.90;;;;;;5050821;28;20032;-75
2023/06/07 01:54:05;;;;;;;17.55;5.95;;;16.20;99.90;;;;;;5050558;28;20028;-76
2023/06/07 01:56:34;;;;;;;11.68;5.47;;;16.20;99.90;;;;;;5050494;28;20071;-75
2023/06/07 01:59:44;;;;;;;13.48;5.70;;;16.10;99.90;;;;;;5050292;28;20025;-75
2023/06/07 02:02:39;;;;;;;18.88;5.97;;;16.10;99.90;;;;;;5032944;28;20519;-76
2023/06/07 02:05:12;;;;;;;17.80;6.65;;;16.10;99.90;;;;;;5050258;28;20033;-74
2023/06/07 02:07:47;;;;;;;12.77;6.88;;;16.00;99.90;;;;;;5050575;28;20070;-75
2023/06/07 02:10:15;;;;;;;13.73;5.75;;;16.10;99.90;;;;;;5050347;28;20402;-76
2023/06/07 02:12:42;;;;;;;10.27;5.35;;;16.00;99.90;;;;;;5050418;28;20531;-75
2023/06/07 02:15:09;;;;;;;9.70;4.70;;;16.00;99.90;;;;;;5050247;28;20025;-75
2023/06/07 02:18:01;;;;;;;12.60;5.35;;;16.00;99.90;;;;;;5050321;28;20099;-75
2023/06/07 02:20:27;;;;;;;19.38;6.22;;;16.00;99.90;;;;;;5049857;28;20040;-74
2023/06/07 02:22:54;;;;;;;16.10;4.68;;;16.00;99.90;;;;;;5050463;28;20104;-75
2023/06/07 02:25:20;;;;;;;10.35;5.20;;;16.00;99.90;;;;;;5049561;28;20028;-75
2023/06/07 02:27:45;;;;;;;13.32;6.25;;;16.10;99.90;;;;;;5048413;28;20028;-74
2023/06/07 02:30:11;;;;;;;16.05;6.22;;;16.00;99.90;;;;;;5050088;28;20048;-74
2023/06/07 02:32:38;;;;;;;11.75;5.07;;;16.00;99.90;;;;;;5049977;28;20040;-76
2023/06/07 02:35:06;;;;;;;8.60;5.65;;;16.00;99.90;;;;;;5050492;28;20021;-76
2023/06/07 02:37:31;;;;;;;9.98;5.75;;;16.00;99.90;;;;;;5049880;28;20103;-76
2023/06/07 02:39:58;;;;;;;22.33;5.63;;;16.00;99.90;;;;;;5049718;28;20176;-76
2023/06/07 02:42:23;;;;;;;11.40;5.50;;;16.00;99.90;;;;;;5049871;28;20025;-75
2023/06/07 02:44:49;;;;;;;20.45;6.60;;;16.00;99.90;;;;;;5050035;28;20033;-75
2023/06/07 02:47:15;;;;;;;14.70;5.32;;;16.00;99.90;;;;;;5049725;28;20033;-76
2023/06/07 02:49:41;;;;;;;20.20;5.90;;;16.00;99.90;;;;;;5049722;28;20053;-76
2023/06/07 02:52:07;;;;;;;11.88;5.60;;;16.00;99.90;;;;;;5049326;28;20485;-76
2023/06/07 02:54:34;;;;;;;10.23;4.88;;;16.00;99.90;;;;;;5049186;28;20029;-76
2023/06/07 02:57:01;;;;;;;14.23;5.10;;;16.00;99.90;;;;;;5049680;28;20052;-75
2023/06/07 02:59:26;;;;;;;14.18;5.63;;;16.00;99.90;;;;;;5049393;28;20451;-76
2023/06/07 03:01:53;;;;;;;11.02;4.65;;;15.90;99.90;;;;;;5049631;28;20039;-75
2023/06/07 03:04:19;;;;;;;9.20;4.80;;;15.90;99.90;;;;;;5049378;28;20028;-76
2023/06/07 03:06:46;;;;;;;8.40;4.88;;;15.90;99.90;;;;;;5048196;28;20117;-76
2023/06/07 03:09:14;;;;;;;11.45;4.38;;;15.90;99.90;;;;;;5049446;28;20516;-76
2023/06/07 03:11:40;;;;;;;9.77;4.03;;;15.90;99.90;;;;;;5049501;28;20553;-75
2023/06/07 03:14:06;;;;;;;16.73;4.53;;;15.90;99.90;;;;;;5048208;28;20043;-77
2023/06/07 03:16:32;;;;;;;7.75;4.05;;;16.00;99.90;;;;;;5049410;28;20025;-76
2023/06/07 03:18:57;;;;;;;18.27;4.90;;;16.00;99.90;;;;;;5047854;28;20029;-75
2023/06/07 03:21:23;;;;;;;11.48;4.95;;;16.00;99.90;;;;;;5049259;28;20047;-76
2023/06/07 03:23:49;;;;;;;15.82;5.57;;;16.00;99.90;;;;;;5049152;28;20060;-76
2023/06/07 03:26:16;;;;;;;8.90;4.65;;;16.00;99.90;;;;;;5047928;28;20406;-75
2023/06/07 03:28:42;;;;;;;13.25;4.85;;;16.00;99.90;;;;;;5047836;28;20017;-75
2023/06/07 03:31:08;;;;;;;16.25;5.55;;;16.10;99.90;;;;;;5047790;28;20071;-75
2023/06/07 03:33:33;;;;;;;13.45;5.57;;;16.10;99.90;;;;;;5047818;28;20048;-75
2023/06/07 03:35:59;;;;;;;18.20;6.25;;;16.10;99.90;;;;;;5048951;28;20406;-75
2023/06/07 03:38:25;;;;;;;18.40;6.03;;;16.10;99.90;;;;;;5049284;28;20071;-75
2023/06/07 03:40:50;;;;;;;18.30;5.57;;;16.20;99.90;;;;;;5049104;28;20582;-75
2023/06/07 03:43:16;;;;;;;9.82;6.00;;;16.20;99.90;;;;;;5048975;28;20024;-76
2023/06/07 03:45:41;;;;;;;12.65;5.32;;;16.20;99.90;;;;;;5049120;28;20409;-75
2023/06/07 03:48:07;;;;;;;14.50;7.03;;;16.20;99.90;;;;;;5048988;28;20515;-76
2023/06/07 03:50:33;;;;;;;8.88;5.60;;;16.30;99.90;;;;;;5049162;28;20721;-75
2023/06/07 03:52:58;;;;;;;11.13;5.22;;;16.30;99.90;;;;;;5048982;28;20055;-75
2023/06/07 03:55:24;;;;;;;13.32;5.45;;;16.40;99.90;;;;;;5048976;28;20460;-76
2023/06/07 03:57:50;;;;;;;11.40;4.82;;;16.40;99.90;;;;;;5048797;28;20061;-75
2023/06/07 04:00:17;;;;;;;12.93;4.68;;;16.50;99.90;;;;;;5047652;28;20040;-75
2023/06/07 04:02:43;;;;;;;15.52;5.68;;;16.50;99.90;;;;;;5048933;28;20025;-76
2023/06/07 04:05:09;;;;;;;11.98;5.55;;;16.60;99.90;;;;;;5051320;28;20506;-75
2023/06/07 04:07:34;;;;;;;12.05;5.45;;;16.60;99.90;;;;;;5052808;28;20025;-75
2023/06/07 04:10:00;;;;;;;12.48;5.50;;;16.70;99.90;;;;;;5052769;28;20033;-75
2023/06/07 04:12:26;;;;;;;13.80;4.13;;;16.70;99.90;;;;;;5052694;28;20036;-76
2023/06/07 04:14:51;;;;;;;7.80;4.75;;;16.80;99.90;;;;;;5051349;28;20404;-74
2023/06/07 04:17:17;;;;;;;12.13;4.82;;;16.80;99.90;;;;;;5052353;28;20033;-76
2023/06/07 04:19:43;;;;;;;8.05;4.43;;;16.80;99.90;;;;;;5052281;28;20032;-75
2023/06/07 04:22:08;;;;;;;14.18;5.28;;;16.80;99.90;;;;;;5051163;28;20037;-75
2023/06/07 04:24:34;;;;;;;10.68;5.00;;;16.80;99.90;;;;;;5052632;28;20074;-76
2023/06/07 04:27:01;;;;;;;18.70;4.78;;;16.90;99.90;;;;;;5050985;28;20025;-76
2023/06/07 04:29:27;;;;;;;8.80;5.15;;;16.90;99.90;;;;;;5052363;28;20075;-77
2023/06/07 04:31:56;;;;;;;10.07;4.78;;;16.90;99.90;;;;;;5051088;28;20029;-76
2023/06/07 04:34:23;;;;;;;6.40;3.30;;;16.90;99.90;;;;;;5051234;28;20021;-75
2023/06/07 04:36:50;;;;;;;17.38;4.22;;;16.90;99.90;;;;;;5053115;28;20417;-77
2023/06/07 04:39:18;;;;;;;9.75;3.97;;;16.90;99.90;;;;;;5051887;28;20456;-76
2023/06/07 04:41:45;;;;;;;10.60;4.30;;;16.90;99.90;;;;;;5050835;28;20039;-75
2023/06/07 04:44:11;;;;;;;10.10;4.60;;;16.90;99.90;;;;;;5052133;28;20078;-76
2023/06/07 04:46:39;;;;;;;5.28;3.88;;;16.90;99.90;;;;;;5050651;28;20128;-75
2023/06/07 04:49:05;;;;;;;10.75;4.53;;;16.90;99.90;;;;;;5050604;28;20033;-76
2023/06/07 04:51:31;;;;;;;6.55;3.92;;;16.90;99.90;;;;;;5051779;28;20098;-75
2023/06/07 04:54:01;;;;;;;12.75;4.05;;;16.90;99.90;;;;;;5051715;28;20428;-76
2023/06/07 04:56:30;;;;;;;15.02;4.50;;;16.90;99.90;;;;;;5051773;28;20049;-75
2023/06/07 04:58:56;;;;;;;7.13;3.88;;;17.00;99.90;;;;;;5051637;28;20571;-75
2023/06/07 05:01:22;;;;;;;16.90;5.05;;;17.00;99.90;;;;;;5051643;28;20036;-76
2023/06/07 05:03:49;;;;;;;10.43;4.70;;;17.00;99.90;;;;;;5051826;28;20031;-75
2023/06/07 05:06:18;;;;;;;14.00;4.78;;;17.00;99.90;;;;;;5051703;28;20557;-75
2023/06/07 05:08:45;;;;;;;18.52;5.38;;;17.10;99.90;;;;;;5051672;28;20587;-75
2023/06/07 05:11:10;;;;;;;6.55;3.83;;;17.20;99.90;;;;;;5051333;28;20029;-76
2023/06/07 05:13:36;;;;;;;10.45;4.47;;;17.20;99.90;;;;;;5051407;28;20074;-76
2023/06/07 05:16:02;;;;;;;11.48;4.78;;;17.20;99.90;;;;;;5050337;28;20701;-76
2023/06/07 05:18:28;;;;;;;13.05;5.05;;;17.20;99.90;;;;;;5051300;28;20028;-75
2023/06/07 05:20:54;;;;;;;8.00;4.95;;;17.30;99.90;;;;;;5051213;28;20132;-75
2023/06/07 05:23:20;;;;;;;12.05;6.03;;;17.30;99.90;;;;;;5051246;28;20017;-76
2023/06/07 05:25:46;;;;;;;14.80;5.68;;;17.40;99.90;;;;;;5051453;28;20024;-75
2023/06/07 05:28:12;;;;;;;10.27;5.63;;;17.60;99.90;;;;;;5051396;28;20251;-76
2023/06/07 05:30:39;;;;;;;9.65;5.20;;;17.70;99.90;;;;;;5051140;28;20025;-76
2023/06/07 05:33:05;;;;;;;9.80;4.35;;;17.70;99.90;;;;;;5051384;28;20021;-77
2023/06/07 05:35:32;;;;;;;9.15;4.63;;;17.60;99.90;;;;;;5051123;28;20041;-76
2023/06/07 05:37:57;;;;;;;7.93;4.55;;;17.70;99.90;;;;;;5051146;28;20557;-76
2023/06/07 05:40:23;;;;;;;6.30;3.90;;;17.70;99.90;;;;;;5050927;28;20071;-76
2023/06/07 05:42:50;;;;;;;15.48;7.15;;;17.70;99.90;;;;;;5050938;28;20103;-76
2023/06/07 05:45:16;;;;;;;13.48;6.53;;;17.70;99.90;;;;;;5050795;28;20667;-77
2023/06/07 05:47:43;;;;;;;13.32;7.15;;;17.70;99.90;;;;;;5050882;28;20017;-76
2023/06/07 05:50:10;;;;;;;16.00;7.88;;;17.60;99.90;;;;;;5050906;28;20036;-76
2023/06/07 05:52:40;;;;;;;14.63;6.95;;;17.60;99.90;;;;;;5050762;28;20071;-76
2023/06/07 05:55:07;;;;;;;10.27;6.15;;;17.60;99.90;;;;;;5050617;28;20029;-75
2023/06/07 05:57:33;;;;;;;8.15;5.53;;;17.50;99.90;;;;;;5050355;28;20076;-77
2023/06/07 05:59:59;;;;;;;9.57;6.03;;;17.60;99.90;;;;;;5050519;28;20437;-76
2023/06/07 06:02:29;;;;;;;8.55;5.70;;;17.70;99.90;;;;;;5050489;28;20545;-75
2023/06/07 06:04:56;;;;;;;12.60;6.00;;;17.80;99.90;;;;;;5050601;28;20025;-76
2023/06/07 06:07:22;;;;;;;16.55;5.53;;;17.90;99.90;;;;;;5050369;28;20063;-77
2023/06/07 06:09:47;;;;;;;10.63;5.47;;;18.00;99.90;;;;;;5050384;28;20029;-77
2023/06/07 06:12:13;;;;;;;9.95;4.43;;;18.00;99.90;;;;;;5050380;28;20501;-76
2023/06/07 06:14:39;;;;;;;12.27;5.03;;;18.10;99.90;;;;;;5050314;28;20497;-76
2023/06/07 06:17:06;;;;;;;11.88;4.30;;;18.20;99.90;;;;;;5050467;28;20112;-76
2023/06/07 06:19:31;;;;;;;10.68;4.00;;;18.30;99.90;;;;;;5050138;28;20086;-76
2023/06/07 06:21:57;;;;;;;11.43;4.43;;;18.30;99.90;;;;;;5050245;28;20439;-76
2023/06/07 06:24:23;;;;;;;7.40;3.83;;;18.40;99.90;;;;;;5049944;28;20024;-76
2023/06/07 06:26:50;;;;;;;10.82;5.18;;;18.30;99.90;;;;;;5049855;28;20508;-76
2023/06/07 06:29:15;;;;;;;11.32;4.82;;;18.30;99.90;;;;;;5049863;28;20025;-76
2023/06/07 06:31:43;;;;;;;7.15;4.30;;;18.30;99.90;;;;;;5050053;28;20036;-77
2023/06/07 06:34:08;;;;;;;7.78;4.70;;;18.30;99.90;;;;;;5050111;28;20159;-76
2023/06/07 06:36:34;;;;;;;10.70;4.63;;;18.30;99.90;;;;;;5049945;28;20120;-77
2023/06/07 06:39:00;;;;;;;10.45;4.55;;;18.20;99.90;;;;;;5049790;28;20500;-76
2023/06/07 06:41:26;;;;;;;7.57;3.83;;;18.30;99.90;;;;;;5049790;28;20091;-76
2023/06/07 06:43:51;;;;;;;10.32;4.40;;;18.40;99.90;;;;;;5049698;28;20542;-77
2023/06/07 06:46:17;;;;;;;10.05;3.92;;;18.40;99.90;;;;;;5049894;28;20054;-76
2023/06/07 06:48:43;;;;;;;5.95;3.58;;;18.40;99.90;;;;;;5049755;28;20473;-77
2023/06/07 06:51:08;;;;;;;10.65;4.18;;;18.50;99.90;;;;;;5049417;28;20191;-76
2023/06/07 06:53:34;;;;;;;11.52;4.38;;;18.40;99.90;;;;;;5049592;28;20121;-77
2023/06/07 06:56:01;;;;;;;16.83;3.90;;;18.50;99.90;;;;;;5049355;28;20106;-77
2023/06/07 06:58:27;;;;;;;7.78;4.15;;;18.60;99.90;;;;;;5049530;28;20041;-76
2023/06/07 07:00:52;;;;;;;8.60;3.95;;;18.60;99.90;;;;;;5049513;28;20040;-76
2023/06/07 07:03:18;;;;;;;7.60;4.18;;;18.70;99.90;;;;;;5049360;28;20559;-77
2023/06/07 07:05:43;;;;;;;12.43;3.83;;;18.70;99.90;;;;;;5048131;28;20106;-77
2023/06/07 07:08:09;;;;;;;9.98;4.43;;;18.80;99.90;;;;;;5049666;28;20025;-76
2023/06/07 07:10:35;;;;;;;8.48;4.10;;;18.90;99.90;;;;;;5049471;28;20341;-78
2023/06/07 07:13:00;;;;;;;16.23;4.43;;;18.90;99.90;;;;;;5049299;28;20349;-75
2023/06/07 07:15:27;;;;;;;10.73;4.57;;;18.90;99.90;;;;;;5049315;28;20025;-76
2023/06/07 07:17:53;;;;;;;10.05;4.22;;;19.20;99.90;;;;;;5049227;28;20060;-76
2023/06/07 07:20:19;;;;;;;5.35;3.22;;;19.60;99.90;;;;;;5049150;28;20072;-77
2023/06/07 07:22:46;;;;;;;7.80;3.50;;;20.40;99.90;;;;;;5049178;28;20032;-77
2023/06/07 07:25:12;;;;;;;11.30;3.78;;;21.30;99.90;;;;;;5049103;28;20055;-77
2023/06/07 07:27:38;;;;;;;13.43;3.42;;;22.20;99.90;;;;;;5049197;28;20025;-77
2023/06/07 07:30:05;;;;;;;13.35;4.05;;;23.00;99.90;;;;;;5049302;28;20093;-74
2023/06/07 07:32:32;;;;;;;5.68;2.70;;;23.50;99.90;;;;;;5049215;28;20079;-73
2023/06/07 07:34:58;;;;;;;8.60;3.38;;;24.00;99.90;;;;;;5048936;28;20493;-75
2023/06/07 07:37:25;;;;;;;8.68;3.20;;;24.40;99.90;;;;;;5048833;28;20105;-74
2023/06/07 07:39:51;;;;;;;10.55;3.25;;;24.90;99.90;;;;;;5049901;28;20416;-74
2023/06/07 07:42:17;;;;;;;4.63;2.88;;;24.70;99.90;;;;;;5053304;28;20490;-74
2023/06/07 07:44:42;;;;;;;12.05;2.72;;;24.50;99.90;;;;;;5053449;28;20571;-74
2023/06/07 07:47:08;;;;;;;5.63;2.85;;;24.10;99.90;;;;;;5053078;28;20056;-74
2023/06/07 07:49:34;;;;;;;8.70;3.10;;;23.80;99.90;;;;;;5053399;28;20024;-74
2023/06/07 07:52:00;;;;;;;5.50;2.40;;;23.50;99.90;;;;;;5053456;28;20032;-74
2023/06/07 07:54:26;;;;;;;17.92;3.30;;;23.20;99.90;;;;;;5053048;28;20021;-74
2023/06/07 07:56:52;;;;;;;10.13;3.03;;;22.90;99.90;;;;;;5052980;28;20084;-74
2023/06/07 07:59:17;;;;;;;7.10;3.03;;;22.80;99.90;;;;;;5052764;28;20508;-75
2023/06/07 08:01:45;;;;;;;10.02;3.90;;;22.70;99.90;;;;;;5052829;28;20521;-74
2023/06/07 08:04:11;;;;;;;4.68;2.22;;;22.60;99.90;;;;;;5052890;28;20021;-74
2023/06/07 08:06:38;;;;;;;6.75;3.33;;;22.60;99.90;;;;;;5052828;28;20029;-75
2023/06/07 08:09:05;;;;;;;7.85;3.72;;;22.60;99.90;;;;;;5051484;28;20500;-74
2023/06/07 08:11:31;;;;;;;10.43;3.58;;;22.50;99.90;;;;;;5052759;28;20029;-74
2023/06/07 08:13:57;;;;;;;9.45;3.40;;;22.20;99.90;;;;;;5052648;28;20021;-74
2023/06/07 08:16:22;;;;;;;7.60;2.75;;;21.90;99.90;;;;;;5052792;28;20029;-74
2023/06/07 08:18:55;;;;;;;4.82;2.80;;;21.80;99.90;;;;;;5052551;28;20036;-74
2023/06/07 08:21:22;;;;;;;7.88;3.15;;;22.00;99.90;;;;;;5052568;28;20040;-74
2023/06/07 08:23:48;;;;;;;8.63;3.58;;;22.10;99.90;;;;;;5052571;28;20055;-75
2023/06/07 08:26:15;;;;;;;6.05;2.83;;;22.10;99.90;;;;;;5052406;28;20037;-74
2023/06/07 08:28:42;;;;;;;6.57;2.97;;;22.30;99.90;;;;;;5052383;28;20029;-74
2023/06/07 08:31:10;;;;;;;8.80;3.53;;;22.20;99.90;;;;;;5052298;28;20519;-74
2023/06/07 08:33:36;;;;;;;11.10;4.00;;;22.20;99.90;;;;;;5052292;28;20473;-74
2023/06/07 08:36:02;;;;;;;10.13;3.40;;;22.20;99.90;;;;;;5052374;28;20029;-74
2023/06/07 08:38:27;;;;;;;7.22;3.47;;;22.40;99.90;;;;;;5052318;28;20036;-74
2023/06/07 08:40:58;;;;;;;11.50;3.97;;;22.60;99.80;;;;;;5052344;28;20634;-74
2023/06/07 08:43:25;;;;;;;10.50;3.30;;;22.40;99.90;;;;;;5052100;28;20425;-75
2023/06/07 08:45:51;;;;;;;10.38;4.13;;;22.30;99.90;;;;;;5052016;28;20029;-74
2023/06/07 08:48:17;;;;;;;10.80;3.25;;;22.10;99.90;;;;;;5052230;28;20036;-74
2023/06/07 08:50:49;;;;;;;11.90;3.08;;;21.80;99.90;;;;;;5052068;28;20021;-74
2023/06/07 08:53:29;;;;;;;13.40;4.55;;;21.60;99.90;;;;;;5051905;28;20033;-74
2023/06/07 08:55:56;;;;;;;11.32;2.97;;;21.50;99.90;;;;;;5051683;28;20029;-74
2023/06/07 08:58:24;;;;;;;8.45;3.08;;;21.30;99.90;;;;;;5051630;28;20039;-74
2023/06/07 09:00:51;;;;;;;9.50;2.80;;;21.20;99.90;;;;;;5050398;28;20040;-73
2023/06/07 09:03:17;;;;;;;9.85;2.97;;;21.10;99.90;;;;;;5051609;28;20056;-75
2023/06/07 09:05:43;;;;;;;3.53;2.20;;;21.10;99.90;;;;;;5051658;28;20511;-74
2023/06/07 09:08:08;;;;;;;7.15;2.88;;;21.30;99.90;;;;;;5051701;28;20570;-74
2023/06/07 09:10:34;;;;;;;10.73;3.10;;;21.40;99.90;;;;;;5051637;28;20028;-73
2023/06/07 09:13:00;;;;;;;10.48;3.45;;;21.70;99.90;;;;;;5051515;28;20028;-74
2023/06/07 09:15:27;;;;;;;5.75;3.38;;;22.00;99.90;;;;;;5051507;28;20087;-74
2023/06/07 09:18:02;;;;;;;9.35;2.97;;;22.30;99.90;;;;;;5051627;28;20037;-73
2023/06/07 09:20:30;;;;;;;5.07;2.63;;;22.20;99.90;;;;;;5051477;28;20043;-73
2023/06/07 09:23:03;;;;;;;11.23;3.58;;;22.00;99.90;;;;;;5051912;28;20036;-73
2023/06/07 09:25:30;;;;;;;7.35;3.75;;;21.80;99.90;;;;;;5051250;28;20024;-74
2023/06/07 09:27:56;;;;;;;12.73;2.90;;;21.80;99.90;;;;;;5051437;28;20380;-74
2023/06/07 09:30:23;;;;;;;8.93;3.42;;;21.70;99.90;;;;;;5051379;28;20055;-73
2023/06/07 09:32:48;;;;;;;7.90;3.35;;;21.50;99.90;;;;;;5051311;28;20028;-74
2023/06/07 09:35:16;;;;;;;7.65;3.33;;;21.50;99.90;;;;;;5051434;28;20519;-74
2023/06/07 09:37:44;;;;;;;8.80;2.90;;;21.60;99.90;;;;;;5051178;28;20029;-74
2023/06/07 09:40:11;;;;;;;7.57;3.38;;;21.80;99.90;;;;;;5051037;28;20037;-74
2023/06/07 09:42:36;;;;;;;7.05;3.60;;;21.80;99.90;;;;;;5051142;28;20025;-74
2023/06/07 09:45:30;;;;;;;6.20;2.55;;;21.70;99.90;;;;;;5051161;28;20098;-75
2023/06/07 09:48:07;;;;;;;10.10;3.55;;;22.20;99.90;;;;;;5049994;28;20045;-75
2023/06/07 09:50:33;;;;;;;5.45;3.67;;;22.30;99.90;;;;;;5050730;28;20024;-74
2023/06/07 09:53:01;;;;;;;8.45;3.22;;;22.50;99.90;;;;;;5050094;28;20108;-74
2023/06/07 09:55:28;;;;;;;5.93;3.47;;;22.50;99.90;;;;;;5050679;28;20108;-74
2023/06/07 09:57:55;;;;;;;5.63;3.50;;;22.60;99.90;;;;;;5050407;28;20045;-73
2023/06/07 10:00:21;;;;;;;7.82;2.78;;;22.70;99.90;;;;;;5049022;28;20036;-72
2023/06/07 10:02:50;;;;;;;10.55;3.35;;;22.70;99.90;;;;;;5049968;28;20040;-73
2023/06/07 10:05:16;;;;;;;6.68;3.17;;;22.80;99.90;;;;;;5050257;28;20106;-73
2023/06/07 10:07:47;;;;;;;5.72;2.92;;;22.80;99.90;;;;;;5050307;28;20029;-73
2023/06/07 10:10:17;;;;;;;4.70;3.47;;;22.90;99.90;;;;;;5049057;28;20033;-74
2023/06/07 10:12:45;;;;;;;9.00;3.58;;;22.90;99.90;;;;;;5050430;28;20104;-74
2023/06/07 10:15:20;;;;;;;8.50;3.75;;;23.10;99.90;;;;;;5050059;28;20033;-75
2023/06/07 10:18:01;;;;;;;6.35;3.38;;;23.20;99.90;;;;;;5049069;28;20338;-74
2023/06/07 10:20:33;;;;;;;13.02;4.38;;;23.20;99.90;;;;;;5050186;28;20074;-74
2023/06/07 10:23:02;;;;;;;8.40;3.90;;;23.10;99.90;;;;;;5050369;28;20025;-74
2023/06/07 10:25:31;;;;;;;7.18;3.60;;;23.30;99.90;;;;;;5050275;28;20124;-75
2023/06/07 10:28:02;;;;;;;5.75;3.67;;;23.30;99.90;;;;;;5050054;28;20124;-74
2023/06/07 10:30:31;;;;;;;10.30;4.43;;;23.30;99.90;;;;;;5050012;28;20055;-74
2023/06/07 10:32:58;;;;;;;11.95;3.63;;;23.20;99.90;;;;;;5048694;28;20051;-74
2023/06/07 10:35:25;;;;;;;9.95;3.75;;;23.10;99.90;;;;;;5050342;28;20032;-75
2023/06/07 10:37:54;;;;;;;6.57;3.53;;;23.20;99.90;;;;;;5049952;28;20089;-75
2023/06/07 10:40:21;;;;;;;10.77;4.20;;;23.30;99.90;;;;;;5049946;28;20040;-73
2023/06/07 10:42:47;;;;;;;5.82;3.38;;;23.30;99.90;;;;;;5049818;28;20456;-74
2023/06/07 10:45:18;;;;;;;6.03;3.25;;;23.40;99.90;;;;;;5049783;28;20513;-73
2023/06/07 10:47:44;;;;;;;8.82;3.08;;;23.20;99.90;;;;;;5049721;28;20025;-75
2023/06/07 10:50:30;;;;;;;7.47;3.08;;;23.30;99.90;;;;;;5049859;28;20159;-73
2023/06/07 10:53:00;;;;;;;7.47;3.80;;;23.20;99.90;;;;;;5049832;28;20102;-73
2023/06/07 10:55:30;;;;;;;7.90;4.03;;;23.20;99.90;;;;;;5049598;28;20547;-74
2023/06/07 10:57:56;;;;;;;6.57;3.83;;;23.30;99.90;;;;;;5049525;28;20052;-74
2023/06/07 11:00:30;;;;;;;6.18;3.80;;;23.50;99.90;;;;;;5049691;28;20040;-74
2023/06/07 11:03:04;;;;;;;9.80;3.85;;;23.70;99.90;;;;;;5049748;28;20021;-73
2023/06/07 11:05:52;;;;;;;9.52;3.97;;;23.60;99.90;;;;;;5049666;28;20037;-74
2023/06/07 11:08:29;;;;;;;6.65;3.97;;;23.80;99.90;;;;;;5048018;28;20032;-74
2023/06/07 11:10:58;;;;;;;5.78;3.75;;;23.80;99.90;;;;;;5049415;28;20061;-74
2023/06/07 11:13:25;;;;;;;7.28;4.35;;;23.90;99.90;;;;;;5048519;28;20028;-73
2023/06/07 11:15:51;;;;;;;9.52;4.20;;;23.90;99.90;;;;;;5049237;28;20029;-74
2023/06/07 11:18:17;;;;;;;11.50;4.82;;;23.70;99.90;;;;;;5049335;28;20051;-75
2023/06/07 11:20:45;;;;;;;9.98;5.22;;;23.60;99.90;;;;;;5047932;28;20037;-73
2023/06/07 11:23:28;;;;;;;7.95;4.40;;;23.40;99.90;;;;;;5049115;28;20028;-74
2023/06/07 11:26:06;;;;;;;9.18;4.57;;;23.50;99.90;;;;;;5049191;28;20052;-74
2023/06/07 11:28:33;;;;;;;9.80;4.07;;;23.60;99.90;;;;;;5049092;28;20505;-74
2023/06/07 11:31:01;;;;;;;8.50;4.30;;;23.80;99.90;;;;;;5047966;28;20029;-73
2023/06/07 11:33:27;;;;;;;16.33;5.18;;;24.20;99.90;;;;;;5049017;28;20071;-74
2023/06/07 11:35:54;;;;;;;8.07;4.28;;;24.30;99.90;;;;;;5049003;28;20033;-74
2023/06/07 11:38:21;;;;;;;6.35;4.07;;;24.20;99.90;;;;;;5049031;28;20037;-73
2023/06/07 11:40:47;;;;;;;10.25;6.10;;;23.90;99.90;;;;;;5049118;28;20047;-73
2023/06/07 11:43:16;;;;;;;9.55;5.57;;;23.70;99.90;;;;;;5048793;28;20053;-74
2023/06/07 11:45:43;;;;;;;13.60;6.10;;;23.50;99.90;;;;;;5049129;28;20100;-74
2023/06/07 11:48:09;;;;;;;9.88;4.40;;;23.50;99.90;;;;;;5048941;28;20502;-73
2023/06/07 11:50:36;;;;;;;12.60;5.43;;;23.40;99.90;;;;;;5047615;28;20033;-74
2023/06/07 11:53:02;;;;;;;7.40;4.45;;;23.50;99.90;;;;;;5048895;28;20029;-74
2023/06/07 11:55:28;;;;;;;11.05;4.60;;;23.50;99.90;;;;;;5047366;28;20456;-74
2023/06/07 11:57:55;;;;;;;15.18;4.97;;;23.50;99.90;;;;;;5047354;28;20045;-73
2023/06/07 12:00:23;;;;;;;8.05;4.18;;;23.70;99.90;;;;;;5047331;28;20140;-74
2023/06/07 12:02:50;;;;;;;7.60;4.60;;;23.60;99.90;;;;;;5048843;28;20107;-74
2023/06/07 12:05:17;;;;;;;10.50;4.35;;;23.60;99.90;;;;;;5048662;28;20032;-74
2023/06/07 12:07:43;;;;;;;9.55;4.45;;;23.70;99.90;;;;;;5048718;28;20096;-74
2023/06/07 12:10:10;;;;;;;8.00;5.10;;;23.50;99.90;;;;;;5048800;28;20040;-74
2023/06/07 12:12:37;;;;;;;9.23;4.70;;;23.80;99.90;;;;;;5047434;28;20087;-73
2023/06/07 12:15:04;;;;;;;8.40;4.57;;;23.60;99.90;;;;;;5048892;28;20056;-74
2023/06/07 12:17:36;;;;;;;14.50;4.70;;;23.60;99.90;;;;;;5048643;28;20032;-73
2023/06/07 12:20:11;;;;;;;10.13;4.30;;;23.60;99.90;;;;;;5047431;28;20033;-73
2023/06/07 12:22:40;;;;;;;11.73;6.13;;;23.70;99.90;;;;;;5048613;28;20027;-72
2023/06/07 12:25:18;;;;;;;18.48;7.00;;;23.80;99.90;;;;;;5049637;28;20108;-73
2023/06/07 12:27:47;;;;;;;14.40;5.57;;;23.80;99.90;;;;;;5052375;28;20025;-74
2023/06/07 12:30:13;;;;;;;10.55;6.13;;;23.90;99.90;;;;;;5051115;28;20039;-73
2023/06/07 12:32:39;;;;;;;13.23;6.80;;;24.10;99.90;;;;;;5052476;28;20025;-73
2023/06/07 12:35:05;;;;;;;13.77;8.15;;;24.20;99.90;;;;;;5052444;28;20032;-73
2023/06/07 12:37:38;;;;;;;12.40;8.27;;;24.40;99.90;;;;;;5052269;28;20444;-73
2023/06/07 12:40:05;;;;;;;14.82;8.13;;;24.40;99.90;;;;;;5052403;28;20844;-73
2023/06/07 12:42:32;;;;;;;11.02;8.57;;;24.20;99.40;;;;;;5050995;28;20056;-73